Time;durP1;ratioP1;P1;durP2;ratioP2;P2;SDS_P1;SDS_P2;PMS_P1;PMS_P2;Temp;Humidity;BMP_temperature;BMP_pressure;BME280_temperature;BME280_humidity;BME280_pressure;Samples;Min_cycle;Max_cycle;Signal;HPM_P1;HPM_P2
2021/08/20 00:01:41;;;;;;;;;;;15.20;99.90;;;;;;4963885;28;19922;-81
2021/08/20 00:04:09;;;;;;;;;;;15.20;99.90;;;;;;4980460;28;20408;-82
2021/08/20 00:06:35;;;;;;;;;;;15.30;99.90;;;;;;4965291;28;19926;-82
2021/08/20 00:09:01;;;;;;;;;;;15.30;99.90;;;;;;4965625;28;19926;-81
2021/08/20 00:11:27;;;;;;;;;;;15.30;99.90;;;;;;4968567;28;20400;-83
2021/08/20 00:13:53;;;;;;;;;;;15.20;99.90;;;;;;4946071;28;20372;-83
2021/08/20 00:16:19;;;;;;;;;;;15.30;99.90;;;;;;4963129;28;20385;-83
2021/08/20 00:18:44;;;;;;;;;;;15.20;99.90;;;;;;4948556;28;19926;-83
2021/08/20 00:21:10;;;;;;;;;;;15.30;99.90;;;;;;4949634;28;19926;-83
2021/08/20 00:23:36;;;;;;;;;;;15.20;99.90;;;;;;4963298;28;19926;-82
2021/08/20 00:26:02;;;;;;;;;;;15.20;99.90;;;;;;4966476;28;20378;-83
2021/08/20 00:28:28;;;;;;;;;;;15.20;99.90;;;;;;4966569;28;19933;-83
2021/08/20 00:30:54;;;;;;;;;;;15.10;99.90;;;;;;4945922;28;19932;-83
2021/08/20 00:33:20;;;;;;;;;;;15.10;99.90;;;;;;4965787;28;20016;-83
2021/08/20 00:35:46;;;;;;;;;;;15.20;99.90;;;;;;4979679;28;19926;-82
2021/08/20 00:38:12;;;;;;;;;;;15.10;99.90;;;;;;4965261;28;19922;-83
2021/08/20 00:40:39;;;;;;;;;;;15.10;99.90;;;;;;4966718;28;19932;-84
2021/08/20 00:43:05;;;;;;;;;;;15.10;99.90;;;;;;4964891;28;19941;-82
2021/08/20 00:45:31;;;;;;;;;;;15.10;99.90;;;;;;4953968;28;19934;-82
2021/08/20 00:47:57;;;;;;;;;;;15.10;99.90;;;;;;4966771;28;19928;-83
2021/08/20 00:50:23;;;;;;;;;;;15.00;99.90;;;;;;4950389;28;19922;-84
2021/08/20 00:52:49;;;;;;;;;;;15.00;99.90;;;;;;4953260;28;20381;-83
2021/08/20 00:55:15;;;;;;;;;;;15.00;99.90;;;;;;4948400;28;19933;-84
2021/08/20 00:57:44;;;;;;;;;;;15.00;99.90;;;;;;4968121;28;19922;-82
2021/08/20 01:00:12;;;;;;;;;;;15.00;99.90;;;;;;4980225;28;20088;-83
2021/08/20 01:02:38;;;;;;;;;;;15.00;99.90;;;;;;4950844;28;20316;-82
2021/08/20 01:05:04;;;;;;;;;;;14.90;99.90;;;;;;4964295;28;20393;-83
2021/08/20 01:07:36;;;;;;;;;;;14.90;99.90;;;;;;4964067;28;19933;-82
2021/08/20 01:10:02;;;;;;;;;;;14.90;99.90;;;;;;4980698;28;20310;-82
2021/08/20 01:12:28;;;;;;;;;;;14.90;99.90;;;;;;4966934;28;19929;-83
2021/08/20 01:14:54;;;;;;;;;;;14.90;99.90;;;;;;4953216;28;19925;-82
2021/08/20 01:17:19;;;;;;;;;;;14.90;99.90;;;;;;4966627;28;19961;-82
2021/08/20 01:19:47;;;;;;;;;;;15.00;99.90;;;;;;4968500;28;19933;-83
2021/08/20 01:22:13;;;;;;;;;;;14.90;99.90;;;;;;4952630;28;19925;-83
2021/08/20 01:24:40;;;;;;;;;;;15.00;99.90;;;;;;4957943;28;20400;-83
2021/08/20 01:27:06;;;;;;;;;;;15.00;99.90;;;;;;4968537;28;20000;-82
2021/08/20 01:29:32;;;;;;;;;;;15.10;99.90;;;;;;4955274;28;19922;-83
2021/08/20 01:31:58;;;;;;;;;;;15.00;99.90;;;;;;4968353;28;20023;-83
2021/08/20 01:34:23;;;;;;;;;;;15.10;99.90;;;;;;4984325;28;19926;-82
2021/08/20 01:36:49;;;;;;;;;;;15.10;99.90;;;;;;4951193;28;19925;-83
2021/08/20 01:39:15;;;;;;;;;;;15.10;99.90;;;;;;4957062;28;19928;-83
2021/08/20 01:41:41;;;;;;;;;;;15.10;99.90;;;;;;4952881;28;19922;-83
2021/08/20 01:44:07;;;;;;;;;;;15.00;99.90;;;;;;4953285;28;19930;-82
2021/08/20 01:46:32;;;;;;;;;;;15.10;99.90;;;;;;4954852;28;19928;-83
2021/08/20 01:48:59;;;;;;;;;;;15.10;99.90;;;;;;4973536;28;19926;-83
2021/08/20 01:51:26;;;;;;;;;;;15.10;99.90;;;;;;4972230;28;20036;-83
2021/08/20 01:53:52;;;;;;;;;;;15.10;99.90;;;;;;4957743;28;19974;-83
2021/08/20 01:56:19;;;;;;;;;;;15.10;99.90;;;;;;4980314;28;20297;-83
2021/08/20 01:58:45;;;;;;;;;;;15.10;99.90;;;;;;4972013;28;20337;-83
2021/08/20 02:01:11;;;;;;;;;;;15.10;99.90;;;;;;4972358;28;19948;-82
2021/08/20 02:03:37;;;;;;;;;;;15.00;99.90;;;;;;4972076;28;19922;-83
2021/08/20 02:06:03;;;;;;;;;;;15.00;99.90;;;;;;4983073;28;20382;-81
2021/08/20 02:08:29;;;;;;;;;;;15.00;99.90;;;;;;4972430;28;19977;-83
2021/08/20 02:10:55;;;;;;;;;;;15.00;99.90;;;;;;4983432;28;19930;-82
2021/08/20 02:13:21;;;;;;;;;;;15.00;99.90;;;;;;4970994;28;19992;-82
2021/08/20 02:15:47;;;;;;;;;;;15.00;99.90;;;;;;4957314;28;19933;-83
2021/08/20 02:18:13;;;;;;;;;;;15.00;99.90;;;;;;4971303;28;19922;-82
2021/08/20 02:20:40;;;;;;;;;;;15.00;99.90;;;;;;4973058;28;19925;-82
2021/08/20 02:23:06;;;;;;;;;;;15.00;99.90;;;;;;4983177;28;19929;-82
2021/08/20 02:25:32;;;;;;;;;;;15.00;99.90;;;;;;4984416;28;19949;-82
2021/08/20 02:27:58;;;;;;;;;;;15.00;99.90;;;;;;4972689;28;20013;-83
2021/08/20 02:30:24;;;;;;;;;;;15.00;99.90;;;;;;4971006;28;19945;-83
2021/08/20 02:32:50;;;;;;;;;;;15.00;99.90;;;;;;4972423;28;19933;-82
2021/08/20 02:35:15;;;;;;;;;;;15.00;99.90;;;;;;4970219;28;19930;-82
2021/08/20 02:37:41;;;;;;;;;;;15.10;99.90;;;;;;4972493;28;19922;-82
2021/08/20 02:40:07;;;;;;;;;;;15.10;99.90;;;;;;4970168;28;20401;-83
2021/08/20 02:42:33;;;;;;;;;;;15.00;99.90;;;;;;4972377;28;19922;-83
2021/08/20 02:44:58;;;;;;;;;;;15.10;99.90;;;;;;4951680;28;19929;-83
2021/08/20 02:47:24;;;;;;;;;;;15.00;99.90;;;;;;4985724;28;20643;-82
2021/08/20 02:49:50;;;;;;;;;;;15.10;99.90;;;;;;4966320;28;19928;-83
2021/08/20 02:52:17;;;;;;;;;;;15.10;99.90;;;;;;4936095;28;19976;-81
2021/08/20 02:54:43;;;;;;;;;;;15.20;99.90;;;;;;4951052;28;20346;-82
2021/08/20 02:57:09;;;;;;;;;;;15.20;99.90;;;;;;4949700;28;20008;-82
2021/08/20 02:59:35;;;;;;;;;;;15.10;99.90;;;;;;4983406;28;19967;-83
2021/08/20 03:02:00;;;;;;;;;;;15.10;99.90;;;;;;4966722;28;19960;-82
2021/08/20 03:04:26;;;;;;;;;;;15.20;99.90;;;;;;4965017;28;20297;-83
2021/08/20 03:06:53;;;;;;;;;;;15.10;99.90;;;;;;4953106;28;20005;-82
2021/08/20 03:09:20;;;;;;;;;;;15.20;99.90;;;;;;4984400;28;19922;-82
2021/08/20 03:11:46;;;;;;;;;;;15.20;99.90;;;;;;4953048;28;20020;-82
2021/08/20 03:14:12;;;;;;;;;;;15.20;99.90;;;;;;4950454;28;19925;-83
2021/08/20 03:16:38;;;;;;;;;;;15.20;99.90;;;;;;4951851;28;20399;-82
2021/08/20 03:19:04;;;;;;;;;;;15.20;99.90;;;;;;4949051;28;19926;-83
2021/08/20 03:21:30;;;;;;;;;;;15.20;99.90;;;;;;4962771;28;19936;-83
2021/08/20 03:23:55;;;;;;;;;;;15.30;99.90;;;;;;4966672;28;19948;-83
2021/08/20 03:26:23;;;;;;;;;;;15.20;99.90;;;;;;4970152;28;19925;-83
2021/08/20 03:28:49;;;;;;;;;;;15.30;99.90;;;;;;4965368;28;20013;-84
2021/08/20 03:31:14;;;;;;;;;;;15.30;99.90;;;;;;4964562;28;20028;-83
2021/08/20 03:33:40;;;;;;;;;;;15.30;99.90;;;;;;4966111;28;19921;-83
2021/08/20 03:36:06;;;;;;;;;;;15.30;99.90;;;;;;4931654;28;20362;-83
2021/08/20 03:38:32;;;;;;;;;;;15.30;99.90;;;;;;4951129;28;19922;-82
2021/08/20 03:40:57;;;;;;;;;;;15.30;99.90;;;;;;4966406;28;19930;-82
2021/08/20 03:43:23;;;;;;;;;;;15.30;99.90;;;;;;4967997;28;20033;-83
2021/08/20 03:45:49;;;;;;;;;;;15.20;99.90;;;;;;4934770;28;19926;-82
2021/08/20 03:48:15;;;;;;;;;;;15.20;99.90;;;;;;4934044;28;20320;-83
2021/08/20 03:50:41;;;;;;;;;;;15.20;99.90;;;;;;4955457;28;20305;-82
2021/08/20 03:53:06;;;;;;;;;;;15.00;99.90;;;;;;4982093;28;19954;-82
2021/08/20 03:55:32;;;;;;;;;;;15.00;99.90;;;;;;4949880;28;20358;-82
2021/08/20 03:57:58;;;;;;;;;;;15.00;99.90;;;;;;4965162;28;20008;-83
2021/08/20 04:00:24;;;;;;;;;;;15.10;99.90;;;;;;4934353;28;20829;-83
2021/08/20 04:02:50;;;;;;;;;;;15.00;99.90;;;;;;4964752;28;19932;-82
2021/08/20 04:05:15;;;;;;;;;;;15.00;99.90;;;;;;4973113;28;19925;-83
2021/08/20 04:07:42;;;;;;;;;;;15.00;99.90;;;;;;4967437;28;19926;-82
2021/08/20 04:10:08;;;;;;;;;;;14.90;99.90;;;;;;4948269;28;20301;-82
2021/08/20 04:12:33;;;;;;;;;;;15.00;99.90;;;;;;4963656;28;19930;-82
2021/08/20 04:14:59;;;;;;;;;;;15.00;99.90;;;;;;4983005;28;19930;-83
2021/08/20 04:17:25;;;;;;;;;;;14.90;99.90;;;;;;4962648;28;20404;-82
2021/08/20 04:19:51;;;;;;;;;;;14.90;99.90;;;;;;4965989;28;19953;-82
2021/08/20 04:22:16;;;;;;;;;;;14.80;99.90;;;;;;4970254;28;20284;-82
2021/08/20 04:24:42;;;;;;;;;;;14.80;99.90;;;;;;4954891;28;19925;-82
2021/08/20 04:27:09;;;;;;;;;;;14.80;99.90;;;;;;4965233;28;20292;-83
2021/08/20 04:29:35;;;;;;;;;;;14.80;99.90;;;;;;4963713;28;20024;-83
2021/08/20 04:32:01;;;;;;;;;;;14.80;99.90;;;;;;4982708;28;20024;-81
2021/08/20 04:34:27;;;;;;;;;;;14.70;99.90;;;;;;4966486;28;20312;-81
2021/08/20 04:36:53;;;;;;;;;;;14.70;99.90;;;;;;4964561;28;19922;-82
2021/08/20 04:39:22;;;;;;;;;;;14.70;99.90;;;;;;4965980;28;19930;-82
2021/08/20 04:41:48;;;;;;;;;;;14.70;99.90;;;;;;4980544;28;19972;-82
2021/08/20 04:44:14;;;;;;;;;;;14.60;99.90;;;;;;4952967;28;19929;-83
2021/08/20 04:46:42;;;;;;;;;;;14.70;99.90;;;;;;4942824;28;19972;-82
2021/08/20 04:49:10;;;;;;;;;;;14.70;99.90;;;;;;4958156;28;19937;-82
2021/08/20 04:51:36;;;;;;;;;;;14.70;99.90;;;;;;4962549;28;19929;-83
2021/08/20 04:54:02;;;;;;;;;;;14.80;99.90;;;;;;4991385;28;20028;-83
2021/08/20 04:56:28;;;;;;;;;;;14.70;99.90;;;;;;4971841;28;20008;-82
2021/08/20 04:58:53;;;;;;;;;;;14.80;99.90;;;;;;4975119;28;19925;-82
2021/08/20 05:01:19;;;;;;;;;;;14.80;99.90;;;;;;4968773;28;19980;-82
2021/08/20 05:03:46;;;;;;;;;;;14.80;99.90;;;;;;4971829;28;19925;-82
2021/08/20 05:06:13;;;;;;;;;;;14.90;99.90;;;;;;4975344;28;20402;-82
2021/08/20 05:08:40;;;;;;;;;;;14.80;99.90;;;;;;4994855;28;20040;-81
2021/08/20 05:11:06;;;;;;;;;;;14.80;99.90;;;;;;4978797;28;19934;-82
2021/08/20 05:13:34;;;;;;;;;;;14.80;99.90;;;;;;4955235;28;20021;-82
2021/08/20 05:15:59;;;;;;;;;;;14.70;99.90;;;;;;4965682;28;19926;-82
2021/08/20 05:18:26;;;;;;;;;;;14.70;99.90;;;;;;4946482;28;19981;-83
2021/08/20 05:20:52;;;;;;;;;;;14.70;99.90;;;;;;4986660;28;20289;-82
2021/08/20 05:23:17;;;;;;;;;;;14.80;99.90;;;;;;4958904;28;19941;-82
2021/08/20 05:25:43;;;;;;;;;;;14.80;99.90;;;;;;4968642;28;20440;-83
2021/08/20 05:28:09;;;;;;;;;;;14.80;99.90;;;;;;4963426;28;19930;-83
2021/08/20 05:30:36;;;;;;;;;;;14.80;99.90;;;;;;4946404;28;19930;-83
2021/08/20 05:33:02;;;;;;;;;;;14.90;99.90;;;;;;4940514;28;20338;-83
2021/08/20 05:35:28;;;;;;;;;;;15.00;99.90;;;;;;4968948;28;19928;-82
2021/08/20 05:37:54;;;;;;;;;;;15.00;99.90;;;;;;4966851;28;20710;-84
2021/08/20 05:40:20;;;;;;;;;;;15.10;99.90;;;;;;4959806;28;19957;-83
2021/08/20 05:42:46;;;;;;;;;;;15.20;99.90;;;;;;4953702;28;19932;-82
2021/08/20 05:45:12;;;;;;;;;;;15.20;99.90;;;;;;4954788;28;19966;-83
2021/08/20 05:47:38;;;;;;;;;;;15.30;99.90;;;;;;4934537;28;20310;-83
2021/08/20 05:50:04;;;;;;;;;;;15.30;99.90;;;;;;4953826;28;19927;-83
2021/08/20 05:52:31;;;;;;;;;;;15.30;99.90;;;;;;4967991;28;19961;-83
2021/08/20 05:54:59;;;;;;;;;;;15.40;99.90;;;;;;4967214;28;20005;-85
2021/08/20 05:57:25;;;;;;;;;;;15.40;99.90;;;;;;4959771;28;20400;-85
2021/08/20 05:59:51;;;;;;;;;;;15.40;99.90;;;;;;4954989;28;19923;-84
2021/08/20 06:02:16;;;;;;;;;;;15.50;99.90;;;;;;4936986;28;19926;-86
2021/08/20 06:04:43;;;;;;;;;;;15.50;99.90;;;;;;4937139;28;19933;-85
2021/08/20 06:07:08;;;;;;;;;;;15.60;99.90;;;;;;4951344;28;19927;-85
2021/08/20 06:09:38;;;;;;;;;;;15.70;99.90;;;;;;4955347;28;19937;-85
2021/08/20 06:12:04;;;;;;;;;;;15.60;99.90;;;;;;4967385;28;19930;-86
2021/08/20 06:14:30;;;;;;;;;;;15.70;99.90;;;;;;4936410;28;19930;-84
2021/08/20 06:16:56;;;;;;;;;;;15.70;99.90;;;;;;4950943;28;20361;-84
2021/08/20 06:19:22;;;;;;;;;;;15.70;99.90;;;;;;4970403;28;20017;-83
2021/08/20 06:21:48;;;;;;;;;;;15.80;99.90;;;;;;4964419;28;19930;-86
2021/08/20 06:24:14;;;;;;;;;;;15.80;99.90;;;;;;4962073;28;19977;-86
2021/08/20 06:26:40;;;;;;;;;;;15.90;99.90;;;;;;4935259;28;19926;-86
2021/08/20 06:29:08;;;;;;;;;;;15.90;99.90;;;;;;4965502;28;19931;-86
2021/08/20 06:31:37;;;;;;;;;;;15.90;99.90;;;;;;4948268;28;20266;-86
2021/08/20 06:34:03;;;;;;;;;;;16.00;99.90;;;;;;4970319;28;19934;-86
2021/08/20 06:36:29;;;;;;;;;;;16.00;99.90;;;;;;4963291;28;19930;-86
2021/08/20 06:38:54;;;;;;;;;;;16.00;99.90;;;;;;4930434;28;19961;-85
2021/08/20 06:41:20;;;;;;;;;;;16.20;99.90;;;;;;4949937;28;19926;-86
2021/08/20 06:43:46;;;;;;;;;;;16.20;99.90;;;;;;4955332;28;19936;-86
2021/08/20 06:46:12;;;;;;;;;;;16.10;99.90;;;;;;4939334;28;19938;-86
2021/08/20 06:48:38;;;;;;;;;;;16.20;99.90;;;;;;4970141;28;19980;-85
2021/08/20 06:51:39;;;;;;;;;;;16.20;99.90;;;;;;4971547;28;19925;-86
2021/08/20 06:54:05;;;;;;;;;;;16.20;99.90;;;;;;4953386;28;19934;-85
2021/08/20 06:56:35;;;;;;;;;;;16.20;99.90;;;;;;4953887;28;19926;-87
2021/08/20 06:59:01;;;;;;;;;;;16.20;99.90;;;;;;4969514;28;19928;-86
2021/08/20 07:01:27;;;;;;;;;;;16.20;99.90;;;;;;4969156;28;20389;-86
2021/08/20 07:03:55;;;;;;;;;;;16.30;99.90;;;;;;4950338;28;19944;-87
2021/08/20 07:06:24;;;;;;;;;;;16.30;99.90;;;;;;4970112;28;19932;-87
2021/08/20 07:08:51;;;;;;;;;;;16.30;99.90;;;;;;4949054;28;19930;-86
2021/08/20 07:11:19;;;;;;;;;;;16.40;99.90;;;;;;4937524;28;19936;-86
2021/08/20 07:13:45;;;;;;;;;;;16.40;99.90;;;;;;4948228;28;21274;-87
2021/08/20 07:16:11;;;;;;;;;;;16.40;99.90;;;;;;4981730;28;19926;-86
2021/08/20 07:18:37;;;;;;;;;;;16.40;99.90;;;;;;4952169;28;19961;-86
2021/08/20 07:21:04;;;;;;;;;;;16.40;99.90;;;;;;4972485;28;20389;-86
2021/08/20 07:23:30;;;;;;;;;;;16.50;99.90;;;;;;4986885;28;19923;-86
2021/08/20 07:25:56;;;;;;;;;;;16.40;99.90;;;;;;4967815;28;19926;-88
2021/08/20 07:28:21;;;;;;;;;;;16.50;99.90;;;;;;4989649;28;19977;-86
2021/08/20 07:30:47;;;;;;;;;;;16.50;99.90;;;;;;4953269;28;20408;-86
2021/08/20 07:33:16;;;;;;;;;;;16.50;99.90;;;;;;4946743;28;19926;-88
2021/08/20 07:35:41;;;;;;;;;;;16.50;99.90;;;;;;4968949;28;19926;-87
2021/08/20 07:38:07;;;;;;;;;;;16.60;99.90;;;;;;4966946;28;19937;-87
2021/08/20 07:40:35;;;;;;;;;;;16.50;99.90;;;;;;4961905;28;20312;-87
2021/08/20 07:43:01;;;;;;;;;;;16.60;99.90;;;;;;4931139;28;20008;-87
2021/08/20 07:45:27;;;;;;;;;;;16.50;99.90;;;;;;4949679;28;19981;-86
2021/08/20 07:47:53;;;;;;;;;;;16.50;99.90;;;;;;4968758;28;19930;-88
2021/08/20 07:50:19;;;;;;;;;;;16.60;99.90;;;;;;4964984;28;19926;-87
2021/08/20 07:52:45;;;;;;;;;;;16.60;99.90;;;;;;4931776;28;20394;-86
2021/08/20 07:55:12;;;;;;;;;;;16.60;99.90;;;;;;4945244;28;19927;-86
2021/08/20 07:57:48;;;;;;;;;;;16.70;99.90;;;;;;4945393;28;19941;-84
2021/08/20 08:00:14;;;;;;;;;;;16.70;99.90;;;;;;4948582;28;19969;-86
2021/08/20 08:02:40;;;;;;;;;;;16.70;99.90;;;;;;4949994;28;20328;-86
2021/08/20 08:05:06;;;;;;;;;;;16.80;99.90;;;;;;4948633;28;19931;-86
2021/08/20 08:07:31;;;;;;;;;;;16.80;99.90;;;;;;4932384;28;19933;-87
2021/08/20 08:10:03;;;;;;;;;;;16.90;99.90;;;;;;4931199;28;19927;-88
2021/08/20 08:12:42;;;;;;;;;;;16.90;99.90;;;;;;4948774;28;19927;-95
2021/08/20 08:15:10;;;;;;;;;;;16.90;99.90;;;;;;4932734;28;19930;-93
2021/08/20 08:17:37;;;;;;;;;;;17.00;99.90;;;;;;4931248;28;19932;-87
2021/08/20 08:20:06;;;;;;;;;;;17.00;99.90;;;;;;4924483;28;19980;-88
2021/08/20 08:22:32;;;;;;;;;;;17.00;99.90;;;;;;4933753;28;19922;-88
2021/08/20 08:24:58;;;;;;;;;;;17.00;99.90;;;;;;4916763;28;19932;-88
2021/08/20 08:27:45;;;;;;;;;;;17.00;99.90;;;;;;4935588;28;19998;-88
2021/08/20 08:30:25;;;;;;;;;;;17.10;99.90;;;;;;4956241;28;19926;-86
2021/08/20 08:32:51;;;;;;;;;;;17.20;99.90;;;;;;4949805;28;19923;-88
2021/08/20 08:35:17;;;;;;;;;;;17.30;99.90;;;;;;4930811;28;19933;-88
2021/08/20 08:37:42;;;;;;;;;;;17.30;99.90;;;;;;4942193;28;19933;-88
2021/08/20 08:40:09;;;;;;;;;;;17.30;99.90;;;;;;4943849;28;20502;-88
2021/08/20 08:42:38;;;;;;;;;;;17.40;99.90;;;;;;4936505;28;19922;-87
2021/08/20 08:45:05;;;;;;;;;;;17.40;99.90;;;;;;4973899;28;19934;-88
2021/08/20 08:47:35;;;;;;;;;;;17.40;99.90;;;;;;4953673;28;19970;-89
2021/08/20 08:50:02;;;;;;;;;;;17.50;99.90;;;;;;4959677;28;19926;-89
2021/08/20 08:52:37;;;;;;;;;;;17.50;99.90;;;;;;4948648;28;19929;-89
2021/08/20 08:55:05;;;;;;;;;;;17.50;99.90;;;;;;4945068;28;19926;-89
2021/08/20 08:57:34;;;;;;;;;;;17.60;99.90;;;;;;4930454;28;20005;-88
2021/08/20 09:00:19;;;;;;;;;;;17.60;99.90;;;;;;4949379;28;19926;-87
2021/08/20 09:02:46;;;;;;;;;;;17.60;99.90;;;;;;4951297;28;20044;-88
2021/08/20 09:05:12;;;;;;;;;;;17.70;99.90;;;;;;4961827;28;19929;-88
2021/08/20 09:07:39;;;;;;;;;;;17.70;99.90;;;;;;4961300;28;19923;-89
2021/08/20 09:10:24;;;;;;;;;;;17.70;99.90;;;;;;4962598;28;19922;-88
2021/08/20 09:12:50;;;;;;;;;;;17.70;99.90;;;;;;4944629;28;19926;-88
2021/08/20 09:15:17;;;;;;;;;;;17.70;99.90;;;;;;4964799;28;20021;-88
2021/08/20 09:17:47;;;;;;;;;;;17.70;99.90;;;;;;4958113;28;19923;-89
2021/08/20 09:20:13;;;;;;;;;;;17.70;99.90;;;;;;4931619;28;20294;-88
2021/08/20 09:22:39;;;;;;;;;;;17.80;99.90;;;;;;4966265;28;20390;-88
2021/08/20 09:25:05;;;;;;;;;;;17.70;99.90;;;;;;4945006;28;19930;-88
2021/08/20 09:27:31;;;;;;;;;;;17.80;99.90;;;;;;4959260;28;19930;-88
2021/08/20 09:29:58;;;;;;;;;;;17.80;99.90;;;;;;4965078;28;19933;-89
2021/08/20 09:32:25;;;;;;;;;;;17.80;99.90;;;;;;4956607;28;20421;-88
2021/08/20 09:34:52;;;;;;;;;;;17.80;99.90;;;;;;4963505;28;19926;-88
2021/08/20 09:37:19;;;;;;;;;;;17.90;99.90;;;;;;4961375;28;19930;-88
2021/08/20 09:39:48;;;;;;;;;;;17.90;99.90;;;;;;4967652;28;20001;-86
2021/08/20 09:42:17;;;;;;;;;;;17.90;99.90;;;;;;4968116;28;20334;-87
2021/08/20 09:44:43;;;;;;;;;;;17.90;99.90;;;;;;4971135;28;19930;-89
2021/08/20 09:47:09;;;;;;;;;;;17.90;99.90;;;;;;4949103;28;19927;-90
2021/08/20 09:49:53;;;;;;;;;;;18.00;99.90;;;;;;4971457;28;19922;-87
2021/08/20 09:52:29;;;;;;;;;;;18.00;99.90;;;;;;4972226;28;19929;-87
2021/08/20 09:54:55;;;;;;;;;;;18.10;99.90;;;;;;4993852;28;19930;-88
2021/08/20 09:57:23;;;;;;;;;;;18.20;99.90;;;;;;4975350;28;19922;-86
2021/08/20 09:59:49;;;;;;;;;;;18.20;99.90;;;;;;4985916;28;19929;-86
2021/08/20 10:02:18;;;;;;;;;;;18.10;99.90;;;;;;4961371;28;19926;-87
2021/08/20 10:04:45;;;;;;;;;;;18.10;99.90;;;;;;4981821;28;19933;-87
2021/08/20 10:07:12;;;;;;;;;;;18.20;99.90;;;;;;4969076;28;19922;-86
2021/08/20 10:09:38;;;;;;;;;;;18.20;99.90;;;;;;4953504;28;19925;-88
2021/08/20 10:12:07;;;;;;;;;;;18.10;99.90;;;;;;4954593;28;19932;-89
2021/08/20 10:14:33;;;;;;;;;;;18.20;99.90;;;;;;4972099;28;20044;-84
2021/08/20 10:16:59;;;;;;;;;;;18.20;99.90;;;;;;4951820;28;20539;-83
2021/08/20 10:19:25;;;;;;;;;;;18.20;99.90;;;;;;4987346;28;19937;-83
2021/08/20 10:21:51;;;;;;;;;;;18.20;99.90;;;;;;4976472;28;19932;-82
2021/08/20 10:24:16;;;;;;;;;;;18.20;99.90;;;;;;4956022;28;19953;-83
2021/08/20 10:26:46;;;;;;;;;;;18.30;99.90;;;;;;4943598;28;19926;-84
2021/08/20 10:29:12;;;;;;;;;;;18.30;99.90;;;;;;4957323;28;19929;-83
2021/08/20 10:31:40;;;;;;;;;;;18.30;99.90;;;;;;4949599;28;19929;-84
2021/08/20 10:34:24;;;;;;;;;;;18.30;99.90;;;;;;4972433;28;19930;-83
2021/08/20 10:37:02;;;;;;;;;;;18.30;99.90;;;;;;4969275;28;20381;-85
2021/08/20 10:39:28;;;;;;;;;;;18.30;99.90;;;;;;4972904;28;20307;-85
2021/08/20 10:42:07;;;;;;;;;;;18.30;99.90;;;;;;4966212;28;19921;-85
2021/08/20 10:44:34;;;;;;;;;;;18.40;99.90;;;;;;4971283;28;19936;-87
2021/08/20 10:47:00;;;;;;;;;;;18.40;99.90;;;;;;4972243;28;20505;-86
2021/08/20 10:49:26;;;;;;;;;;;18.40;99.90;;;;;;4990182;28;20382;-85
2021/08/20 10:51:52;;;;;;;;;;;18.40;99.90;;;;;;4967404;28;19976;-86
2021/08/20 10:54:30;;;;;;;;;;;18.40;99.90;;;;;;4960902;28;19926;-85
2021/08/20 10:56:56;;;;;;;;;;;18.40;99.90;;;;;;4945585;28;19926;-85
2021/08/20 10:59:46;;;;;;;;;;;18.40;99.90;;;;;;4972548;28;19957;-85
2021/08/20 11:02:18;;;;;;;;;;;18.40;99.90;;;;;;4966583;28;20405;-85
2021/08/20 11:05:01;;;;;;;;;;;18.50;99.90;;;;;;4964674;28;19932;-86
2021/08/20 11:07:39;;;;;;;;;;;18.50;99.90;;;;;;4948581;28;19929;-86
2021/08/20 11:10:08;;;;;;;;;;;18.60;99.90;;;;;;4964579;28;19929;-86
2021/08/20 11:12:41;;;;;;;;;;;18.70;99.90;;;;;;4978564;28;19922;-86
2021/08/20 11:15:31;;;;;;;;;;;18.70;99.90;;;;;;4970877;28;20544;-85
2021/08/20 11:18:02;;;;;;;;;;;18.80;99.90;;;;;;4961440;28;20413;-89
2021/08/20 11:20:28;;;;;;;;;;;18.80;99.90;;;;;;4962270;28;19928;-85
2021/08/20 11:23:12;;;;;;;;;;;18.90;99.90;;;;;;4952757;28;20013;-85
2021/08/20 11:25:46;;;;;;;;;;;19.00;99.90;;;;;;4963624;28;19929;-86
2021/08/20 11:28:34;;;;;;;;;;;19.00;99.90;;;;;;4965239;28;19994;-85
2021/08/20 11:31:05;;;;;;;;;;;19.00;99.90;;;;;;4969682;28;19925;-85
2021/08/20 11:33:34;;;;;;;;;;;19.10;99.90;;;;;;4945096;28;19934;-85
2021/08/20 11:36:02;;;;;;;;;;;19.10;99.90;;;;;;4968927;28;20080;-86
2021/08/20 11:38:33;;;;;;;;;;;19.20;99.90;;;;;;4955477;28;19972;-86
2021/08/20 11:41:31;;;;;;;;;;;19.30;99.90;;;;;;4972653;28;19933;-87
2021/08/20 11:44:00;;;;;;;;;;;19.30;99.90;;;;;;4958296;28;19926;-86
2021/08/20 11:46:28;;;;;;;;;;;19.30;99.90;;;;;;4928551;28;19930;-86
2021/08/20 11:48:57;;;;;;;;;;;19.30;99.90;;;;;;4969898;28;19922;-87
2021/08/20 11:51:29;;;;;;;;;;;19.40;99.90;;;;;;4954141;28;20409;-86
2021/08/20 11:53:56;;;;;;;;;;;19.50;99.90;;;;;;4964183;28;19934;-87
2021/08/20 11:56:22;;;;;;;;;;;19.60;99.90;;;;;;4950882;28;19926;-86
2021/08/20 11:58:47;;;;;;;;;;;19.60;99.90;;;;;;4942899;28;19922;-87
2021/08/20 12:01:34;;;;;;;;;;;19.70;99.90;;;;;;4966437;28;20020;-86
2021/08/20 12:04:03;;;;;;;;;;;19.70;99.90;;;;;;4940974;28;19928;-86
2021/08/20 12:06:33;;;;;;;;;;;19.70;99.90;;;;;;4952149;28;19922;-86
2021/08/20 12:09:09;;;;;;;;;;;19.70;99.90;;;;;;4968044;28;20104;-85
2021/08/20 12:11:35;;;;;;;;;;;19.70;99.90;;;;;;4964867;28;19922;-86
2021/08/20 12:14:01;;;;;;;;;;;19.70;99.90;;;;;;4936067;28;19932;-88
2021/08/20 12:16:30;;;;;;;;;;;19.70;99.90;;;;;;4967059;28;19930;-86
2021/08/20 12:18:57;;;;;;;;;;;19.60;99.90;;;;;;4967677;28;19934;-85
2021/08/20 12:21:23;;;;;;;;;;;19.60;99.90;;;;;;4966866;28;19985;-86
2021/08/20 12:23:55;;;;;;;;;;;19.60;99.90;;;;;;4962843;28;19922;-86
2021/08/20 12:26:21;;;;;;;;;;;19.60;99.90;;;;;;4932564;28;19922;-86
2021/08/20 12:28:47;;;;;;;;;;;19.60;99.90;;;;;;4961242;28;19932;-86
2021/08/20 12:31:13;;;;;;;;;;;19.50;99.90;;;;;;4933726;28;19931;-86
2021/08/20 12:33:58;;;;;;;;;;;19.60;99.90;;;;;;4962359;28;20416;-86
2021/08/20 12:36:30;;;;;;;;;;;19.60;99.90;;;;;;4960721;28;19933;-85
2021/08/20 12:39:11;;;;;;;;;;;19.70;99.90;;;;;;4935328;28;20001;-85
2021/08/20 12:41:39;;;;;;;;;;;19.60;99.90;;;;;;4967554;28;19930;-85
2021/08/20 12:44:09;;;;;;;;;;;19.80;99.90;;;;;;4965872;28;19981;-84
2021/08/20 12:46:41;;;;;;;;;;;19.70;99.90;;;;;;4957679;28;19933;-85
2021/08/20 12:49:17;;;;;;;;;;;19.70;99.90;;;;;;4966813;28;20025;-85
2021/08/20 12:52:16;;;;;;;;;;;19.70;99.90;;;;;;4967817;28;19930;-85
2021/08/20 12:54:51;;;;;;;;;;;19.80;99.90;;;;;;4958940;28;19925;-85
2021/08/20 12:57:48;;;;;;;;;;;19.80;99.90;;;;;;4933814;28;19954;-85
2021/08/20 13:00:39;;;;;;;;;;;19.90;99.90;;;;;;4940646;28;19954;-84
2021/08/20 13:03:09;;;;;;;;;;;19.90;99.90;;;;;;4969515;28;19922;-85
2021/08/20 13:05:35;;;;;;;;;;;19.80;99.90;;;;;;4957477;28;19926;-86
2021/08/20 13:08:02;;;;;;;;;;;19.90;99.90;;;;;;4944338;28;19937;-85
2021/08/20 13:10:28;;;;;;;;;;;19.90;99.90;;;;;;4936294;28;20088;-85
2021/08/20 13:12:55;;;;;;;;;;;20.00;99.90;;;;;;4968006;28;19927;-84
2021/08/20 13:15:23;;;;;;;;;;;20.10;99.90;;;;;;4963290;28;20439;-85
2021/08/20 13:17:49;;;;;;;;;;;20.20;99.90;;;;;;4962178;28;19986;-86
2021/08/20 13:20:21;;;;;;;;;;;20.30;99.90;;;;;;4970641;28;20299;-84
2021/08/20 13:22:47;;;;;;;;;;;20.30;99.90;;;;;;4971081;28;20437;-85
2021/08/20 13:25:13;;;;;;;;;;;20.30;99.90;;;;;;4956106;28;19929;-84
2021/08/20 13:27:39;;;;;;;;;;;20.30;99.90;;;;;;4971118;28;19922;-86
2021/08/20 13:30:05;;;;;;;;;;;20.40;99.90;;;;;;4975711;28;19922;-85
2021/08/20 13:32:31;;;;;;;;;;;20.40;99.90;;;;;;4971295;28;20021;-86
2021/08/20 13:34:59;;;;;;;;;;;20.40;99.90;;;;;;4954488;28;20445;-84
2021/08/20 13:37:25;;;;;;;;;;;20.50;99.90;;;;;;4972487;28;19933;-85
2021/08/20 13:39:51;;;;;;;;;;;20.50;99.90;;;;;;4946008;28;19926;-84
2021/08/20 13:42:17;;;;;;;;;;;20.70;99.90;;;;;;4964799;28;20057;-84
2021/08/20 13:44:43;;;;;;;;;;;20.80;99.90;;;;;;4957375;28;19928;-86
2021/08/20 13:47:08;;;;;;;;;;;20.80;99.90;;;;;;4972307;28;19952;-84
2021/08/20 13:49:34;;;;;;;;;;;20.80;99.90;;;;;;4967256;28;20400;-84
2021/08/20 13:52:00;;;;;;;;;;;20.70;99.90;;;;;;4947767;28;19940;-86
2021/08/20 13:54:25;;;;;;;;;;;20.60;99.90;;;;;;4935948;28;19930;-85
2021/08/20 13:56:51;;;;;;;;;;;20.50;99.90;;;;;;4972594;28;19930;-86
2021/08/20 13:59:19;;;;;;;;;;;20.40;99.90;;;;;;4964252;28;19993;-86
2021/08/20 14:01:45;;;;;;;;;;;20.40;99.90;;;;;;4984129;28;20565;-85
2021/08/20 14:04:11;;;;;;;;;;;20.40;99.90;;;;;;4939844;28;20017;-85
2021/08/20 14:06:42;;;;;;;;;;;20.60;99.90;;;;;;4957350;28;19932;-85
2021/08/20 14:09:08;;;;;;;;;;;20.70;99.90;;;;;;4966066;28;19921;-86
2021/08/20 14:11:33;;;;;;;;;;;20.90;99.90;;;;;;4970240;28;19932;-84
2021/08/20 14:13:59;;;;;;;;;;;21.00;99.90;;;;;;4940910;28;20010;-86
2021/08/20 14:16:26;;;;;;;;;;;20.90;99.90;;;;;;4965984;28;19933;-86
2021/08/20 14:18:52;;;;;;;;;;;20.90;99.90;;;;;;4937133;28;19929;-85
2021/08/20 14:21:20;;;;;;;;;;;20.70;99.90;;;;;;4971584;28;19926;-85